createdAt,value
2023-04-15T00:01:00.346Z,6.99
2023-04-15T00:03:28.823Z,6.97
2023-04-15T00:05:55.478Z,6.90
2023-04-15T00:08:22.143Z,6.98
2023-04-15T00:10:49.376Z,6.95
2023-04-15T00:13:16.599Z,6.94
2023-04-15T00:15:43.366Z,6.93
2023-04-15T00:18:10.173Z,6.90
2023-04-15T00:20:37.178Z,6.94
2023-04-15T00:23:04.145Z,6.92
2023-04-15T00:25:31.195Z,6.94
2023-04-15T00:27:57.701Z,6.92
2023-04-15T00:30:24.302Z,6.90
2023-04-15T00:32:50.901Z,6.90
2023-04-15T00:35:17.633Z,6.81
2023-04-15T00:37:46.040Z,6.87
2023-04-15T00:40:13.852Z,6.88
2023-04-15T00:42:40.908Z,6.85
2023-04-15T00:45:08.850Z,6.85
2023-04-15T00:47:37.264Z,6.85
2023-04-15T00:50:04.043Z,6.84
2023-04-15T00:52:30.769Z,6.83
2023-04-15T00:54:57.636Z,6.73
2023-04-15T00:57:24.603Z,6.75
2023-04-15T00:59:52.875Z,6.78
2023-04-15T01:02:19.949Z,6.75
2023-04-15T01:04:47.084Z,6.73
2023-04-15T01:07:13.584Z,6.67
2023-04-15T01:09:40.542Z,6.72
2023-04-15T01:12:08.501Z,6.72
2023-04-15T01:14:35.195Z,6.72
2023-04-15T01:17:02.211Z,6.70
2023-04-15T01:19:29.098Z,6.70
2023-04-15T01:21:56.324Z,6.71
2023-04-15T01:24:23.163Z,6.68
2023-04-15T01:26:50.395Z,6.69
2023-04-15T01:29:16.929Z,6.69
2023-04-15T01:31:53.749Z,6.73
2023-04-15T01:34:20.893Z,6.62
2023-04-15T01:36:47.516Z,6.73
2023-04-15T01:39:14.608Z,6.73
2023-04-15T01:41:42.377Z,6.73
2023-04-15T01:44:09.209Z,6.68
2023-04-15T01:46:36.322Z,6.72
2023-04-15T01:49:02.965Z,6.68
2023-04-15T01:51:29.736Z,6.76
2023-04-15T01:53:58.758Z,6.77
2023-04-15T01:56:25.407Z,6.77
2023-04-15T01:58:51.878Z,6.76
2023-04-15T02:01:19.818Z,6.79
2023-04-15T02:03:47.843Z,6.68
2023-04-15T02:06:14.683Z,6.78
2023-04-15T02:08:41.217Z,6.80
2023-04-15T02:11:08.183Z,6.77
2023-04-15T02:13:34.674Z,6.80
2023-04-15T02:16:01.497Z,6.80
2023-04-15T02:18:28.050Z,6.71
2023-04-15T02:20:54.567Z,6.77
2023-04-15T02:23:21.056Z,6.79
2023-04-15T02:25:53.407Z,6.79
2023-04-15T02:28:21.066Z,6.66
2023-04-15T02:30:50.810Z,6.80
2023-04-15T02:33:17.523Z,6.81
2023-04-15T02:35:45.373Z,6.82
2023-04-15T02:38:12.115Z,6.79
2023-04-15T02:40:38.626Z,6.77
2023-04-15T02:43:06.891Z,6.77
2023-04-15T02:45:33.531Z,6.78
2023-04-15T02:48:03.531Z,6.76
2023-04-15T02:50:31.709Z,6.68
2023-04-15T02:52:58.210Z,6.73
2023-04-15T02:55:24.703Z,6.73
2023-04-15T02:57:51.413Z,6.72
2023-04-15T03:00:17.950Z,6.72
2023-04-15T03:02:47.301Z,6.70
2023-04-15T03:05:14.507Z,6.59
2023-04-15T03:07:41.048Z,6.67
2023-04-15T03:10:08.324Z,6.59
2023-04-15T03:12:34.825Z,6.63
2023-04-15T03:15:02.110Z,6.62
2023-04-15T03:17:28.699Z,6.60
2023-04-15T03:19:55.434Z,6.58
2023-04-15T03:22:22.016Z,6.57
2023-04-15T03:24:48.535Z,6.50
2023-04-15T03:27:14.990Z,6.49
2023-04-15T03:29:41.419Z,6.40
2023-04-15T03:32:07.869Z,6.47
2023-04-15T03:34:34.401Z,6.45
2023-04-15T03:37:01.030Z,6.40
2023-04-15T03:39:27.473Z,6.42
2023-04-15T03:41:53.927Z,6.40
2023-04-15T03:44:20.398Z,6.40
2023-04-15T03:46:46.921Z,6.02
2023-04-15T03:49:14.158Z,5.86
2023-04-15T03:51:40.741Z,6.22
2023-04-15T03:54:07.310Z,6.38
2023-04-15T03:56:33.858Z,6.36
2023-04-15T03:59:00.499Z,6.39
2023-04-15T04:01:27.112Z,6.37
2023-04-15T04:03:53.843Z,6.29
2023-04-15T04:06:20.552Z,6.34
2023-04-15T04:08:47.056Z,6.34
2023-04-15T04:11:13.601Z,6.36
2023-04-15T04:13:40.496Z,6.20
2023-04-15T04:16:07.148Z,6.35
2023-04-15T04:18:33.769Z,6.21
2023-04-15T04:21:00.584Z,6.27
2023-04-15T04:23:27.108Z,6.35
2023-04-15T04:25:53.700Z,6.35
2023-04-15T04:28:20.183Z,6.33
2023-04-15T04:30:46.611Z,6.31
2023-04-15T04:33:13.228Z,6.31
2023-04-15T04:35:39.712Z,6.29
2023-04-15T04:38:06.282Z,6.32
2023-04-15T04:40:32.755Z,6.31
2023-04-15T04:42:59.213Z,6.31
2023-04-15T04:45:25.802Z,6.33
2023-04-15T04:47:52.345Z,6.31
2023-04-15T04:50:18.925Z,6.33
2023-04-15T04:52:45.636Z,6.35
2023-04-15T04:55:12.433Z,6.32
2023-04-15T04:57:39.678Z,6.36
2023-04-15T05:00:08.441Z,6.29
2023-04-15T05:02:35.415Z,6.27
2023-04-15T05:05:01.955Z,6.33
2023-04-15T05:07:28.424Z,6.30
2023-04-15T05:09:54.898Z,6.28
2023-04-15T05:12:21.586Z,6.30
2023-04-15T05:14:48.117Z,6.32
2023-04-15T05:17:15.363Z,6.24
2023-04-15T05:19:41.847Z,6.05
2023-04-15T05:22:08.425Z,6.32
2023-04-15T05:24:34.920Z,6.30
2023-04-15T05:27:02.134Z,6.24
2023-04-15T05:29:28.622Z,6.32
2023-04-15T05:31:55.995Z,6.32
2023-04-15T05:34:22.935Z,6.30
2023-04-15T05:36:49.563Z,6.30
2023-04-15T05:39:16.167Z,6.29
2023-04-15T05:41:42.638Z,6.12
2023-04-15T05:44:09.206Z,5.85
2023-04-15T05:46:35.828Z,6.09
2023-04-15T05:49:02.625Z,6.26
2023-04-15T05:51:29.366Z,6.28
2023-04-15T05:53:55.865Z,6.27
2023-04-15T05:56:22.335Z,6.10
2023-04-15T05:58:48.849Z,6.27
2023-04-15T06:01:15.466Z,6.25
2023-04-15T06:03:42.795Z,6.17
2023-04-15T06:06:09.865Z,6.25
2023-04-15T06:08:36.662Z,6.24
2023-04-15T06:11:03.290Z,6.25
2023-04-15T06:13:29.785Z,6.24
2023-04-15T06:15:56.294Z,6.23
2023-04-15T06:18:22.829Z,6.20
2023-04-15T06:20:49.473Z,6.11
2023-04-15T06:23:15.994Z,6.24
2023-04-15T06:25:42.446Z,6.22
2023-04-15T06:28:08.902Z,6.23
2023-04-15T06:30:36.091Z,6.21
2023-04-15T06:33:05.459Z,6.22
2023-04-15T06:35:32.175Z,6.21
2023-04-15T06:37:58.632Z,6.20
2023-04-15T06:40:25.163Z,6.22
2023-04-15T06:42:51.713Z,6.24
2023-04-15T06:45:18.383Z,6.21
2023-04-15T06:47:44.980Z,6.19
2023-04-15T06:50:11.589Z,6.20
2023-04-15T06:52:38.057Z,6.18
2023-04-15T06:55:05.361Z,6.23
2023-04-15T06:57:33.282Z,6.19
2023-04-15T07:00:01.638Z,6.12
2023-04-15T07:02:28.243Z,6.25
2023-04-15T07:04:55.632Z,6.22
2023-04-15T07:07:22.261Z,6.27
2023-04-15T07:09:48.828Z,6.27
2023-04-15T07:12:15.340Z,6.28
2023-04-15T07:14:41.830Z,6.30
2023-04-15T07:17:09.514Z,6.31
2023-04-15T07:19:36.500Z,6.21
2023-04-15T07:22:03.057Z,6.30
2023-04-15T07:24:30.091Z,6.39
2023-04-15T07:27:00.996Z,6.38
2023-04-15T07:29:27.521Z,6.38
2023-04-15T07:31:53.995Z,6.39
2023-04-15T07:34:20.929Z,6.41
2023-04-15T07:36:50.548Z,6.43
2023-04-15T07:39:17.086Z,6.47
2023-04-15T07:41:43.598Z,6.50
2023-04-15T07:44:10.124Z,6.49
2023-04-15T07:46:38.282Z,6.53
2023-04-15T07:49:05.142Z,6.52
2023-04-15T07:51:32.255Z,6.43
2023-04-15T07:53:59.246Z,6.55
2023-04-15T07:56:26.454Z,6.55
2023-04-15T07:58:53.314Z,6.56
2023-04-15T08:01:19.832Z,6.34
2023-04-15T08:03:47.202Z,6.25
2023-04-15T08:06:14.217Z,6.65
2023-04-15T08:08:40.711Z,6.68
2023-04-15T08:11:07.180Z,6.67
2023-04-15T08:13:33.676Z,6.67
2023-04-15T08:16:25.972Z,6.66
2023-04-15T08:18:53.923Z,6.65
2023-04-15T08:21:20.669Z,6.62
2023-04-15T08:23:50.560Z,6.62
2023-04-15T08:26:17.694Z,6.71
2023-04-15T08:28:45.433Z,6.71
2023-04-15T08:31:13.214Z,6.69
2023-04-15T08:33:39.712Z,6.76
2023-04-15T08:36:07.487Z,6.84
2023-04-15T08:38:34.485Z,6.85
2023-04-15T08:41:04.929Z,6.85
2023-04-15T08:43:35.203Z,6.83
2023-04-15T08:46:02.625Z,6.85
2023-04-15T08:48:30.223Z,6.85
2023-04-15T08:50:57.294Z,6.86
2023-04-15T08:53:24.408Z,6.87
2023-04-15T08:55:52.701Z,6.89
2023-04-15T08:58:19.771Z,6.93
2023-04-15T09:00:46.611Z,6.99
2023-04-15T09:03:13.316Z,6.98
2023-04-15T09:05:39.879Z,6.95
2023-04-15T09:08:06.387Z,6.94
2023-04-15T09:10:33.674Z,6.96
2023-04-15T09:13:01.989Z,6.95
2023-04-15T09:15:29.838Z,6.92
2023-04-15T09:17:56.895Z,6.92
2023-04-15T09:20:23.787Z,6.98
2023-04-15T09:22:51.738Z,6.99
2023-04-15T09:25:24.862Z,7.00
2023-04-15T09:27:52.797Z,7.03
2023-04-15T09:30:19.385Z,7.05
2023-04-15T09:32:57.046Z,7.02
2023-04-15T09:35:24.780Z,6.90
2023-04-15T09:37:51.402Z,6.98
2023-04-15T09:40:40.165Z,7.12
2023-04-15T09:43:08.497Z,7.16
2023-04-15T09:45:36.365Z,7.16
2023-04-15T09:48:23.414Z,7.22
2023-04-15T09:50:50.475Z,7.24
2023-04-15T09:53:19.130Z,7.27
2023-04-15T09:56:07.889Z,7.32
2023-04-15T09:58:36.122Z,7.36
2023-04-15T10:01:06.507Z,7.20
2023-04-15T10:03:38.139Z,7.37
2023-04-15T10:06:05.592Z,7.41
2023-04-15T10:08:33.706Z,7.45
2023-04-15T10:11:04.817Z,7.49
2023-04-15T10:13:40.775Z,7.48
2023-04-15T10:16:11.235Z,7.37
2023-04-15T10:18:43.648Z,7.47
2023-04-15T10:21:10.415Z,7.39
2023-04-15T10:23:37.376Z,7.45
2023-04-15T10:26:05.456Z,7.43
2023-04-15T10:28:32.314Z,7.44
2023-04-15T10:30:59.708Z,7.27
2023-04-15T10:33:27.128Z,7.37
2023-04-15T10:35:55.875Z,7.42
2023-04-15T10:38:39.144Z,7.43
2023-04-15T10:41:21.083Z,7.44
2023-04-15T10:43:52.921Z,7.52
2023-04-15T10:46:43.171Z,7.57
2023-04-15T10:49:17.393Z,7.64
2023-04-15T10:51:45.865Z,7.64
2023-04-15T10:54:17.494Z,7.61
2023-04-15T10:56:45.325Z,7.65
2023-04-15T10:59:11.839Z,7.62
2023-04-15T11:01:56.560Z,7.55
2023-04-15T11:04:52.528Z,7.63
2023-04-15T11:07:34.206Z,7.65
2023-04-15T11:10:01.744Z,7.60
2023-04-15T11:12:38.695Z,7.78
2023-04-15T11:15:31.881Z,7.87
2023-04-15T11:17:59.882Z,7.94
2023-04-15T11:20:27.137Z,7.91
2023-04-15T11:23:08.247Z,7.85
2023-04-15T11:25:41.716Z,7.99
2023-04-15T11:28:08.635Z,8.01
2023-04-15T11:30:37.404Z,7.98
2023-04-15T11:33:09.366Z,7.95
2023-04-15T11:35:36.339Z,7.95
2023-04-15T11:38:11.260Z,7.91
2023-04-15T11:40:38.391Z,7.85
2023-04-15T11:43:13.161Z,7.73
2023-04-15T11:45:50.077Z,7.84
2023-04-15T11:48:17.339Z,7.81
2023-04-15T11:50:43.849Z,7.87
2023-04-15T11:53:12.750Z,7.90
2023-04-15T11:55:47.360Z,7.97
2023-04-15T11:58:24.876Z,8.03
2023-04-15T12:00:54.106Z,8.01
2023-04-15T12:03:41.697Z,8.02
2023-04-15T12:06:19.329Z,8.02
2023-04-15T12:08:59.068Z,7.98
2023-04-15T12:11:30.791Z,7.79
2023-04-15T12:14:17.664Z,7.90
2023-04-15T12:16:49.980Z,7.90
2023-04-15T12:19:23.415Z,7.92
2023-04-15T12:21:50.372Z,7.75
2023-04-15T12:24:21.084Z,7.91
2023-04-15T12:26:53.344Z,7.95
2023-04-15T12:29:21.263Z,7.95
2023-04-15T12:31:56.001Z,7.97
2023-04-15T12:34:34.079Z,7.96
2023-04-15T12:37:02.418Z,7.99
2023-04-15T12:39:32.829Z,7.90
2023-04-15T12:42:00.348Z,8.03
2023-04-15T12:44:28.020Z,8.05
2023-04-15T12:46:55.023Z,8.09
2023-04-15T12:49:22.961Z,8.10
2023-04-15T12:51:51.274Z,8.12
2023-04-15T12:54:18.077Z,8.14
2023-04-15T12:56:48.632Z,8.12
2023-04-15T12:59:16.938Z,8.14
2023-04-15T13:01:43.462Z,8.12
2023-04-15T13:04:10.138Z,8.14
2023-04-15T13:06:36.867Z,8.19
2023-04-15T13:09:05.637Z,8.16
2023-04-15T13:11:33.857Z,8.29
2023-04-15T13:14:02.209Z,8.32
2023-04-15T13:16:29.611Z,8.32
2023-04-15T13:18:56.350Z,8.33
2023-04-15T13:21:22.889Z,8.32
2023-04-15T13:23:50.867Z,8.31
2023-04-15T13:26:18.183Z,8.33
2023-04-15T13:28:44.994Z,8.26
2023-04-15T13:31:11.686Z,8.32
2023-04-15T13:33:38.305Z,8.39
2023-04-15T13:36:04.753Z,8.31
2023-04-15T13:38:31.330Z,8.44
2023-04-15T13:40:58.055Z,8.43
2023-04-15T13:43:24.554Z,8.43
2023-04-15T13:45:51.245Z,8.40
2023-04-15T13:48:17.839Z,8.37
2023-04-15T13:50:45.459Z,8.39
2023-04-15T13:53:13.077Z,8.36
2023-04-15T13:55:41.730Z,8.35
2023-04-15T13:58:09.113Z,8.33
2023-04-15T14:00:35.708Z,8.32
2023-04-15T14:03:02.291Z,8.30
2023-04-15T14:05:28.914Z,8.33
2023-04-15T14:07:55.511Z,8.35
2023-04-15T14:10:21.998Z,8.35
2023-04-15T14:12:48.545Z,8.36
2023-04-15T14:15:15.150Z,8.36
2023-04-15T14:17:42.517Z,8.37
2023-04-15T14:20:09.629Z,8.39
2023-04-15T14:22:36.346Z,8.40
2023-04-15T14:25:02.932Z,8.44
2023-04-15T14:27:29.443Z,8.45
2023-04-15T14:29:57.716Z,8.49
2023-04-15T14:32:26.262Z,8.54
2023-04-15T14:34:52.896Z,8.45
2023-04-15T14:37:20.463Z,8.51
2023-04-15T14:39:46.956Z,8.62
2023-04-15T14:42:13.479Z,8.56
2023-04-15T14:44:40.270Z,8.53
2023-04-15T14:47:06.995Z,8.63
2023-04-15T14:49:33.586Z,8.63
2023-04-15T14:52:00.016Z,8.64
2023-04-15T14:54:26.619Z,8.64
2023-04-15T14:56:53.159Z,8.63
2023-04-15T14:59:19.666Z,8.66
2023-04-15T15:01:46.624Z,8.63
2023-04-15T15:04:13.415Z,8.64
2023-04-15T15:06:40.208Z,8.75
2023-04-15T15:09:06.911Z,8.74
2023-04-15T15:11:33.589Z,8.72
2023-04-15T15:14:00.169Z,8.67
2023-04-15T15:16:27.821Z,8.65
2023-04-15T15:18:55.155Z,8.69
2023-04-15T15:21:21.686Z,8.68
2023-04-15T15:23:48.492Z,8.66
2023-04-15T15:26:15.789Z,8.64
2023-04-15T15:28:42.406Z,8.62
2023-04-15T15:31:09.193Z,8.60
2023-04-15T15:33:35.834Z,8.59
2023-04-15T15:36:03.513Z,8.53
2023-04-15T15:38:29.908Z,8.57
2023-04-15T15:40:56.695Z,8.58
2023-04-15T15:43:23.217Z,8.57
2023-04-15T15:45:52.115Z,8.58
2023-04-15T15:48:18.670Z,8.57
2023-04-15T15:50:45.725Z,8.58
2023-04-15T15:53:17.780Z,8.58
2023-04-15T15:55:44.251Z,8.58
2023-04-15T15:58:10.960Z,8.58
2023-04-15T16:00:37.522Z,8.60
2023-04-15T16:03:07.307Z,8.59
2023-04-15T16:05:35.522Z,8.57
2023-04-15T16:08:02.346Z,8.58
2023-04-15T16:10:28.960Z,8.52
2023-04-15T16:12:55.790Z,8.57
2023-04-15T16:15:23.903Z,8.57
2023-04-15T16:17:50.522Z,8.51
2023-04-15T16:20:17.342Z,8.60
2023-04-15T16:22:43.883Z,8.57
2023-04-15T16:25:10.588Z,8.60
2023-04-15T16:27:50.348Z,8.61
2023-04-15T16:30:23.856Z,8.44
2023-04-15T16:32:50.611Z,8.60
2023-04-15T16:35:17.194Z,8.57
2023-04-15T16:37:43.752Z,8.61
2023-04-15T16:40:10.651Z,8.62
2023-04-15T16:42:37.216Z,8.58
2023-04-15T16:45:03.871Z,8.67
2023-04-15T16:47:30.431Z,8.63
2023-04-15T16:49:56.865Z,8.67
2023-04-15T16:52:23.336Z,8.69
2023-04-15T16:54:49.770Z,8.70
2023-04-15T16:57:16.275Z,8.70
2023-04-15T16:59:42.745Z,8.69
2023-04-15T17:02:12.736Z,8.70
2023-04-15T17:04:39.839Z,8.68
2023-04-15T17:07:06.789Z,8.65
2023-04-15T17:09:33.226Z,8.65
2023-04-15T17:11:59.774Z,8.66
2023-04-15T17:14:28.679Z,8.66
2023-04-15T17:16:55.707Z,8.66
2023-04-15T17:19:22.176Z,8.61
2023-04-15T17:21:48.818Z,8.67
2023-04-15T17:24:15.333Z,8.65
2023-04-15T17:26:41.807Z,8.67
2023-04-15T17:29:08.361Z,8.69
2023-04-15T17:31:34.970Z,8.63
2023-04-15T17:34:09.455Z,8.70
2023-04-15T17:36:36.251Z,8.75
2023-04-15T17:39:03.084Z,8.76
2023-04-15T17:41:29.729Z,8.75
2023-04-15T17:43:56.180Z,8.74
2023-04-15T17:46:22.694Z,8.76
2023-04-15T17:48:49.447Z,8.78
2023-04-15T17:51:17.038Z,8.77
2023-04-15T17:53:43.491Z,8.77
2023-04-15T17:56:10.052Z,8.76
2023-04-15T17:58:39.009Z,8.78
2023-04-15T18:01:06.226Z,8.77
2023-04-15T18:03:32.853Z,8.80
2023-04-15T18:06:01.214Z,8.78
2023-04-15T18:08:28.710Z,8.77
2023-04-15T18:10:55.296Z,8.78
2023-04-15T18:13:21.783Z,8.80
2023-04-15T18:15:49.465Z,8.79
2023-04-15T18:18:16.048Z,8.80
2023-04-15T18:20:42.519Z,8.81
2023-04-15T18:23:09.062Z,8.81
2023-04-15T18:25:38.051Z,8.83
2023-04-15T18:28:05.371Z,8.75
2023-04-15T18:30:32.075Z,8.82
2023-04-15T18:32:58.569Z,8.83
2023-04-15T18:35:25.220Z,8.82
2023-04-15T18:37:52.641Z,8.82
2023-04-15T18:40:19.124Z,8.83
2023-04-15T18:42:46.773Z,8.81
2023-04-15T18:45:13.250Z,8.84
2023-04-15T18:47:39.874Z,8.84
2023-04-15T18:50:07.542Z,8.80
2023-04-15T18:52:34.283Z,8.71
2023-04-15T18:55:03.020Z,8.71
2023-04-15T18:57:33.184Z,8.84
2023-04-15T19:00:03.615Z,8.83
2023-04-15T19:02:30.249Z,8.86
2023-04-15T19:04:56.806Z,8.58
2023-04-15T19:07:23.313Z,8.89
2023-04-15T19:09:49.818Z,8.90
2023-04-15T19:12:16.352Z,8.89
2023-04-15T19:14:42.889Z,8.88
2023-04-15T19:17:09.354Z,8.90
2023-04-15T19:19:35.849Z,8.91
2023-04-15T19:22:03.367Z,8.89
2023-04-15T19:24:32.964Z,8.84
2023-04-15T19:26:59.982Z,8.92
2023-04-15T19:29:28.476Z,8.94
2023-04-15T19:31:55.026Z,8.94
2023-04-15T19:34:21.872Z,8.83
2023-04-15T19:36:48.259Z,8.93
2023-04-15T19:39:14.942Z,8.95
2023-04-15T19:41:41.391Z,8.96
2023-04-15T19:44:07.959Z,8.95
2023-04-15T19:46:35.672Z,8.97
2023-04-15T19:49:02.355Z,8.95
2023-04-15T19:51:29.420Z,8.95
2023-04-15T19:53:56.865Z,8.96
2023-04-15T19:56:24.048Z,8.82
2023-04-15T19:58:52.954Z,8.95
2023-04-15T20:01:20.258Z,8.90
2023-04-15T20:03:47.240Z,8.88
2023-04-15T20:06:14.769Z,8.96
2023-04-15T20:08:41.532Z,8.96
2023-04-15T20:11:09.362Z,8.94
2023-04-15T20:13:36.322Z,8.93
2023-04-15T20:16:02.893Z,8.97
2023-04-15T20:18:29.471Z,8.97
2023-04-15T20:20:56.068Z,8.94
2023-04-15T20:23:22.518Z,8.97
2023-04-15T20:25:49.010Z,8.98
2023-04-15T20:28:17.933Z,8.94
2023-04-15T20:30:44.606Z,9.01
2023-04-15T20:33:11.586Z,8.98
2023-04-15T20:35:38.868Z,9.04
2023-04-15T20:38:05.695Z,9.02
2023-04-15T20:40:33.647Z,9.00
2023-04-15T20:43:00.529Z,9.02
2023-04-15T20:45:27.006Z,9.04
2023-04-15T20:47:55.160Z,9.05
2023-04-15T20:50:21.634Z,9.05
2023-04-15T20:52:48.106Z,9.07
2023-04-15T20:55:14.526Z,9.06
2023-04-15T20:57:41.171Z,9.05
2023-04-15T21:00:09.407Z,9.04
2023-04-15T21:02:36.056Z,9.04
2023-04-15T21:05:02.899Z,9.03
2023-04-15T21:07:29.353Z,9.01
2023-04-15T21:09:56.069Z,9.02
2023-04-15T21:12:22.578Z,9.03
2023-04-15T21:14:49.752Z,9.03
2023-04-15T21:17:16.313Z,8.92
2023-04-15T21:19:42.867Z,8.90
2023-04-15T21:22:09.361Z,9.07
2023-04-15T21:24:35.872Z,9.07
2023-04-15T21:27:02.462Z,9.07
2023-04-15T21:29:28.999Z,9.06
2023-04-15T21:31:55.722Z,9.06
2023-04-15T21:34:22.266Z,9.01
2023-04-15T21:36:49.026Z,9.06
2023-04-15T21:39:15.520Z,9.08
2023-04-15T21:41:42.054Z,9.07
2023-04-15T21:44:08.557Z,9.07
2023-04-15T21:46:35.646Z,8.96
2023-04-15T21:49:02.976Z,9.08
2023-04-15T21:51:29.601Z,9.07
2023-04-15T21:53:56.169Z,9.07
2023-04-15T21:56:24.140Z,9.04
2023-04-15T21:58:54.047Z,9.07
2023-04-15T22:01:21.067Z,9.06
2023-04-15T22:03:47.768Z,9.07
2023-04-15T22:06:14.365Z,9.07
2023-04-15T22:08:54.925Z,9.06
2023-04-15T22:11:30.254Z,9.06
2023-04-15T22:13:57.581Z,9.05
2023-04-15T22:16:27.889Z,9.03
2023-04-15T22:18:54.987Z,9.08
2023-04-15T22:21:21.516Z,9.08
2023-04-15T22:23:48.961Z,9.09
2023-04-15T22:26:15.574Z,9.10
2023-04-15T22:28:42.216Z,9.08
2023-04-15T22:31:08.813Z,9.10
2023-04-15T22:33:35.496Z,9.09
2023-04-15T22:36:02.053Z,9.11
2023-04-15T22:38:28.519Z,9.10
2023-04-15T22:40:54.952Z,9.11
2023-04-15T22:43:21.557Z,9.11
2023-04-15T22:45:50.174Z,9.08
2023-04-15T22:48:17.778Z,9.10
2023-04-15T22:50:44.357Z,8.98
2023-04-15T22:53:10.883Z,9.12
2023-04-15T22:55:37.287Z,9.12
2023-04-15T22:58:03.785Z,9.13
2023-04-15T23:00:30.287Z,9.13
2023-04-15T23:02:56.734Z,9.14
2023-04-15T23:05:23.414Z,9.14
2023-04-15T23:07:49.860Z,9.12
2023-04-15T23:10:16.391Z,9.12
2023-04-15T23:12:42.851Z,9.06
2023-04-15T23:15:09.666Z,9.15
2023-04-15T23:17:36.161Z,9.17
2023-04-15T23:20:02.961Z,9.16
2023-04-15T23:22:29.505Z,9.15
2023-04-15T23:24:56.070Z,9.17
2023-04-15T23:27:22.852Z,9.14
2023-04-15T23:29:49.305Z,9.16
2023-04-15T23:32:15.794Z,9.16
2023-04-15T23:34:42.267Z,9.14
2023-04-15T23:37:08.730Z,9.15
2023-04-15T23:39:35.155Z,9.14
2023-04-15T23:42:01.830Z,9.16
2023-04-15T23:44:28.343Z,9.10
2023-04-15T23:46:54.836Z,9.17
2023-04-15T23:49:21.355Z,9.16
2023-04-15T23:51:47.936Z,9.17
2023-04-15T23:54:15.229Z,9.16
2023-04-15T23:56:41.764Z,9.16
2023-04-15T23:59:08.497Z,9.15
